createdAt,value
2019-02-24T00:00:48.382Z,37.64
2019-02-24T00:04:14.596Z,38.73
2019-02-24T00:07:40.238Z,38.92
2019-02-24T00:11:05.946Z,38.44
2019-02-24T00:14:31.706Z,38.42
2019-02-24T00:17:57.400Z,39.13
2019-02-24T00:21:23.073Z,38.96
2019-02-24T00:24:48.692Z,38.73
2019-02-24T00:28:14.400Z,38.65
2019-02-24T00:31:40.142Z,38.70
2019-02-24T00:35:05.843Z,38.54
2019-02-24T00:38:31.547Z,38.78
2019-02-24T00:41:57.516Z,38.61
2019-02-24T00:45:23.446Z,38.52
2019-02-24T00:48:49.113Z,38.24
2019-02-24T00:52:15.357Z,37.68
2019-02-24T00:55:41.090Z,37.38
2019-02-24T00:59:06.813Z,36.96
2019-02-24T01:02:32.422Z,36.25
2019-02-24T01:05:58.090Z,36.31
2019-02-24T01:09:24.160Z,36.72
2019-02-24T01:12:49.826Z,36.39
2019-02-24T01:16:15.479Z,36.46
2019-02-24T01:19:41.279Z,35.77
2019-02-24T01:23:06.885Z,35.80
2019-02-24T01:26:32.519Z,35.78
2019-02-24T01:29:58.230Z,35.96
2019-02-24T01:33:23.833Z,36.20
2019-02-24T01:36:49.649Z,35.65
2019-02-24T01:40:15.290Z,35.73
2019-02-24T01:43:41.192Z,36.00
2019-02-24T01:47:06.822Z,36.47
2019-02-24T01:50:32.463Z,36.26
2019-02-24T01:53:58.117Z,37.07
2019-02-24T01:57:23.749Z,37.30
2019-02-24T02:00:49.396Z,35.85
2019-02-24T02:04:15.107Z,36.17
2019-02-24T02:07:40.806Z,35.83
2019-02-24T02:11:06.508Z,35.60
2019-02-24T02:14:32.220Z,35.66
2019-02-24T02:17:57.853Z,35.62
2019-02-24T02:21:23.474Z,35.51
2019-02-24T02:24:49.106Z,35.41
2019-02-24T02:28:14.752Z,35.13
2019-02-24T02:31:40.408Z,34.89
2019-02-24T02:35:07.384Z,34.53
2019-02-24T02:38:33.008Z,35.06
2019-02-24T02:41:58.638Z,34.83
2019-02-24T02:45:24.241Z,35.27
2019-02-24T02:48:49.858Z,35.75
2019-02-24T02:52:15.505Z,35.73
2019-02-24T02:55:42.860Z,36.11
2019-02-24T02:59:08.475Z,35.57
2019-02-24T03:02:34.480Z,36.11
2019-02-24T03:06:10.989Z,35.69
2019-02-24T03:09:36.605Z,35.94
2019-02-24T03:13:02.209Z,36.80
2019-02-24T03:16:29.096Z,35.61
2019-02-24T03:19:54.678Z,35.84
2019-02-24T03:23:20.286Z,35.83
2019-02-24T03:26:46.227Z,36.09
2019-02-24T03:30:12.320Z,35.85
2019-02-24T03:33:38.094Z,35.13
2019-02-24T03:37:03.937Z,34.94
2019-02-24T03:40:29.594Z,34.78
2019-02-24T03:43:55.260Z,35.63
2019-02-24T03:47:21.233Z,35.10
2019-02-24T03:50:46.812Z,36.98
2019-02-24T03:54:12.453Z,35.54
2019-02-24T03:57:38.126Z,35.41
2019-02-24T04:01:03.789Z,36.16
2019-02-24T04:04:29.438Z,35.52
2019-02-24T04:07:55.053Z,35.79
2019-02-24T04:11:20.637Z,36.18
2019-02-24T04:14:46.631Z,35.69
2019-02-24T04:18:12.254Z,35.19
2019-02-24T04:21:37.883Z,35.18
2019-02-24T04:25:03.514Z,35.64
2019-02-24T04:28:29.111Z,35.75
2019-02-24T04:31:55.154Z,34.85
2019-02-24T04:35:20.883Z,35.18
2019-02-24T04:38:46.614Z,34.76
2019-02-24T04:42:12.733Z,35.22
2019-02-24T04:45:38.621Z,34.62
2019-02-24T04:49:04.175Z,34.22
2019-02-24T04:52:29.836Z,33.85
2019-02-24T04:55:55.781Z,33.31
2019-02-24T04:59:21.473Z,33.35
2019-02-24T05:02:47.094Z,33.49
2019-02-24T05:06:13.176Z,33.78
2019-02-24T05:09:38.842Z,33.64
2019-02-24T05:13:04.773Z,33.09
2019-02-24T05:16:30.402Z,33.58
2019-02-24T05:19:56.288Z,33.15
2019-02-24T05:23:21.874Z,33.06
2019-02-24T05:26:47.863Z,32.85
2019-02-24T05:30:13.553Z,33.18
2019-02-24T05:33:39.176Z,33.01
2019-02-24T05:37:04.823Z,33.00
2019-02-24T05:40:30.484Z,32.62
2019-02-24T05:43:56.148Z,33.34
2019-02-24T05:47:21.794Z,33.43
2019-02-24T05:50:47.449Z,33.21
2019-02-24T05:54:13.056Z,33.78
2019-02-24T05:57:38.665Z,33.51
2019-02-24T06:01:04.267Z,33.85
2019-02-24T06:04:29.857Z,33.41
2019-02-24T06:07:53.527Z,33.89
2019-02-24T06:11:16.395Z,34.30
2019-02-24T06:14:39.349Z,33.67
2019-02-24T06:18:04.746Z,33.24
2019-02-24T06:21:27.645Z,33.09
2019-02-24T06:29:30.048Z,32.82
2019-02-24T06:32:53.160Z,32.84
2019-02-24T06:36:16.569Z,33.01
2019-02-24T06:39:39.931Z,33.03
2019-02-24T06:43:02.948Z,32.14
2019-02-24T06:46:26.130Z,32.98
2019-02-24T06:49:49.424Z,32.81
2019-02-24T06:53:12.434Z,32.42
2019-02-24T06:56:35.466Z,32.63
2019-02-24T06:59:58.514Z,32.11
2019-02-24T07:03:21.679Z,32.21
2019-02-24T07:06:44.850Z,31.95
2019-02-24T07:10:07.898Z,32.05
2019-02-24T07:13:32.142Z,31.33
2019-02-24T07:16:55.784Z,30.91
2019-02-24T07:20:20.688Z,30.75
2019-02-24T07:23:44.317Z,30.40
2019-02-24T07:27:07.348Z,30.04
2019-02-24T07:30:30.606Z,30.34
2019-02-24T07:33:53.801Z,30.32
2019-02-24T07:37:17.548Z,29.92
2019-02-24T07:40:40.699Z,29.72
2019-02-24T07:44:09.332Z,29.54
2019-02-24T07:47:32.494Z,30.47
2019-02-24T07:50:55.642Z,29.31
2019-02-24T07:54:18.785Z,29.11
2019-02-24T07:57:55.096Z,29.09
2019-02-24T08:01:57.306Z,28.62
2019-02-24T08:09:31.217Z,28.18
2019-02-24T08:13:13.773Z,27.71
2019-02-24T08:17:09.562Z,28.02
2019-02-24T08:20:45.215Z,28.90
2019-02-24T08:24:20.471Z,29.16
2019-02-24T08:28:03.069Z,29.05
2019-02-24T08:31:39.188Z,29.46
2019-02-24T08:35:21.758Z,28.69
2019-02-24T08:38:57.592Z,27.75
2019-02-24T08:42:40.197Z,26.25
2019-02-24T08:46:15.848Z,27.13
2019-02-24T08:49:58.629Z,25.81
2019-02-24T08:53:34.396Z,25.44
2019-02-24T08:57:16.918Z,25.64
2019-02-24T09:00:52.185Z,25.70
2019-02-24T09:04:34.771Z,24.99
2019-02-24T09:08:10.828Z,24.32
2019-02-24T09:11:53.464Z,24.78
2019-02-24T09:15:29.539Z,24.64
2019-02-24T09:19:05.190Z,24.95
2019-02-24T09:22:40.502Z,23.90
2019-02-24T09:26:15.744Z,24.26
2019-02-24T09:29:38.912Z,23.66
2019-02-24T09:33:14.733Z,23.49
2019-02-24T09:36:57.362Z,23.46
2019-02-24T09:40:33.484Z,22.68
2019-02-24T09:44:16.443Z,22.35
2019-02-24T09:47:52.089Z,22.16
2019-02-24T09:51:34.850Z,21.98
2019-02-24T09:55:10.658Z,20.38
2019-02-24T09:58:53.552Z,19.88
2019-02-24T10:02:29.468Z,17.47
2019-02-24T10:05:53.161Z,14.51
2019-02-24T10:09:29.030Z,13.61
2019-02-24T10:13:12.007Z,13.09
2019-02-24T10:16:35.332Z,12.48
2019-02-24T10:20:10.931Z,12.46
2019-02-24T10:23:53.503Z,12.68
2019-02-24T10:27:28.837Z,12.64
2019-02-24T10:31:19.615Z,12.26
2019-02-24T10:35:08.955Z,10.84
2019-02-24T10:39:13.716Z,11.66
2019-02-24T10:46:48.351Z,11.19
2019-02-24T10:50:33.429Z,10.67
2019-02-24T10:54:08.813Z,11.33
2019-02-24T10:57:51.429Z,10.53
2019-02-24T11:01:29.909Z,10.71
2019-02-24T11:05:11.985Z,10.61
2019-02-24T11:08:47.475Z,11.05
2019-02-24T11:12:30.195Z,10.72
2019-02-24T11:16:05.706Z,12.13
2019-02-24T11:19:41.588Z,11.52
2019-02-24T11:23:24.623Z,9.84
2019-02-24T11:27:00.099Z,10.09
2019-02-24T11:30:35.568Z,11.00
2019-02-24T11:34:18.626Z,10.14
2019-02-24T11:37:54.969Z,10.18
2019-02-24T11:41:31.267Z,9.04
2019-02-24T11:45:14.411Z,9.42
2019-02-24T11:48:50.604Z,9.01
2019-02-24T11:52:33.241Z,9.72
2019-02-24T11:56:09.255Z,9.28
2019-02-24T11:59:44.628Z,9.80
2019-02-24T12:03:27.264Z,9.45
2019-02-24T12:07:03.464Z,8.27
2019-02-24T12:10:39.434Z,9.40
2019-02-24T12:14:22.109Z,10.42
2019-02-24T12:17:58.099Z,9.80
2019-02-24T12:21:34.474Z,10.90
2019-02-24T12:25:10.254Z,10.83
2019-02-24T12:28:53.084Z,9.58
2019-02-24T12:32:28.299Z,11.24
2019-02-24T12:36:33.023Z,9.91
2019-02-24T12:40:08.424Z,8.55
2019-02-24T12:43:51.535Z,9.20
2019-02-24T12:47:27.669Z,8.63
2019-02-24T12:51:10.507Z,8.27
2019-02-24T12:54:45.966Z,7.87
2019-02-24T12:58:28.560Z,6.36
2019-02-24T13:02:07.346Z,7.87
2019-02-24T13:05:50.329Z,5.65
2019-02-24T13:09:25.887Z,6.21
2019-02-24T13:13:08.488Z,6.03
2019-02-24T13:16:43.824Z,5.76
2019-02-24T13:20:19.494Z,5.45
2019-02-24T13:23:56.816Z,5.59
2019-02-24T13:27:39.446Z,5.81
2019-02-24T13:31:15.184Z,5.30
2019-02-24T13:34:57.763Z,5.42
2019-02-24T13:38:33.302Z,5.33
2019-02-24T13:42:16.839Z,5.48
2019-02-24T13:45:52.792Z,5.32
2019-02-24T13:49:35.672Z,5.43
2019-02-24T13:53:11.466Z,6.07
2019-02-24T13:56:54.331Z,5.83
2019-02-24T14:00:29.977Z,6.07
2019-02-24T14:04:12.602Z,5.46
2019-02-24T14:07:36.051Z,6.52
2019-02-24T14:11:11.925Z,5.63
2019-02-24T14:14:54.433Z,5.64
2019-02-24T14:18:30.470Z,6.28
2019-02-24T14:22:13.032Z,5.48
2019-02-24T14:25:49.549Z,6.05
2019-02-24T14:29:32.122Z,6.24
2019-02-24T14:33:07.898Z,5.44
2019-02-24T14:36:50.575Z,4.76
2019-02-24T14:40:26.276Z,4.60
2019-02-24T14:44:08.782Z,4.75
2019-02-24T14:47:44.921Z,5.79
2019-02-24T14:51:27.819Z,6.09
2019-02-24T14:55:03.925Z,5.93
2019-02-24T14:58:46.959Z,5.63
2019-02-24T15:02:22.920Z,4.81
2019-02-24T15:05:46.263Z,9.34
2019-02-24T15:09:09.733Z,8.43
2019-02-24T15:12:33.042Z,7.90
2019-02-24T15:15:56.173Z,8.67
2019-02-24T15:19:19.530Z,9.51
2019-02-24T15:22:42.861Z,9.45
2019-02-24T15:26:06.061Z,11.10
2019-02-24T15:29:29.173Z,9.01
2019-02-24T15:32:52.297Z,7.26
2019-02-24T15:36:15.418Z,6.42
2019-02-24T15:39:38.654Z,9.35
2019-02-24T15:43:01.839Z,7.43
2019-02-24T15:46:26.830Z,5.81
2019-02-24T15:49:50.212Z,6.72
2019-02-24T15:53:13.457Z,6.45
2019-02-24T15:56:36.623Z,5.89
2019-02-24T15:59:59.875Z,6.65
2019-02-24T16:03:23.028Z,6.93
2019-02-24T16:06:46.515Z,6.85
2019-02-24T16:10:13.057Z,6.38
2019-02-24T16:13:36.955Z,7.05
2019-02-24T16:17:00.107Z,6.52
2019-02-24T16:20:24.523Z,7.53
2019-02-24T16:23:48.072Z,9.56
2019-02-24T16:27:11.308Z,10.93
2019-02-24T16:30:34.541Z,12.63
2019-02-24T16:33:57.928Z,13.53
2019-02-24T16:37:21.189Z,14.10
2019-02-24T16:40:44.467Z,15.04
2019-02-24T16:44:07.561Z,16.96
2019-02-24T16:47:31.288Z,18.01
2019-02-24T16:50:54.458Z,18.15
2019-02-24T16:54:17.599Z,17.51
2019-02-24T16:57:40.701Z,17.06
2019-02-24T17:01:04.003Z,17.58
2019-02-24T17:04:27.218Z,18.36
2019-02-24T17:07:50.437Z,18.52
2019-02-24T17:11:13.655Z,19.08
2019-02-24T17:14:36.994Z,20.52
2019-02-24T17:18:00.419Z,20.08
2019-02-24T17:21:23.516Z,21.61
2019-02-24T17:24:47.096Z,20.80
2019-02-24T17:28:10.343Z,22.23
2019-02-24T17:31:33.621Z,22.59
2019-02-24T17:34:57.120Z,22.34
2019-02-24T17:38:20.381Z,22.56
2019-02-24T17:41:43.577Z,22.46
2019-02-24T17:45:09.277Z,23.15
2019-02-24T17:48:33.433Z,23.25
2019-02-24T17:51:56.610Z,23.13
2019-02-24T17:55:19.860Z,23.96
2019-02-24T17:58:44.048Z,25.20
2019-02-24T18:02:07.597Z,24.73
2019-02-24T18:05:30.973Z,25.86
2019-02-24T18:08:57.895Z,25.94
2019-02-24T18:12:21.307Z,25.81
2019-02-24T18:15:44.439Z,26.06
2019-02-24T18:19:10.614Z,26.49
2019-02-24T18:22:37.204Z,26.26
2019-02-24T18:26:00.965Z,27.75
2019-02-24T18:29:25.451Z,28.02
2019-02-24T18:32:48.939Z,28.16
2019-02-24T18:36:12.254Z,27.91
2019-02-24T18:39:35.730Z,28.92
2019-02-24T18:43:01.046Z,28.50
2019-02-24T18:46:24.796Z,28.76
2019-02-24T18:49:48.246Z,29.01
2019-02-24T18:53:15.172Z,29.00
2019-02-24T18:56:38.624Z,28.55
2019-02-24T19:00:01.892Z,28.77
2019-02-24T19:03:26.773Z,29.23
2019-02-24T19:06:51.173Z,29.28
2019-02-24T19:10:15.636Z,29.16
2019-02-24T19:13:39.348Z,29.17
2019-02-24T19:17:02.768Z,29.05
2019-02-24T19:20:25.928Z,30.13
2019-02-24T19:23:49.321Z,31.19
2019-02-24T19:27:12.800Z,31.63
2019-02-24T19:30:36.001Z,32.37
2019-02-24T19:34:06.452Z,32.48
2019-02-24T19:37:24.859Z,32.24
2019-02-24T19:40:53.452Z,31.68
2019-02-24T19:44:16.571Z,32.54
2019-02-24T19:47:40.382Z,32.43
2019-02-24T19:51:03.662Z,31.89
2019-02-24T19:54:27.148Z,32.97
2019-02-24T19:57:53.142Z,32.89
2019-02-24T20:01:16.394Z,32.85
2019-02-24T20:04:39.897Z,32.33
2019-02-24T20:08:03.296Z,32.41
2019-02-24T20:11:26.756Z,33.31
2019-02-24T20:14:50.042Z,33.27
2019-02-24T20:18:13.314Z,33.88
2019-02-24T20:21:38.156Z,34.30
2019-02-24T20:25:01.415Z,34.11
2019-02-24T20:28:24.661Z,33.32
2019-02-24T20:31:47.834Z,33.75
2019-02-24T20:35:11.056Z,34.80
2019-02-24T20:38:34.306Z,34.91
2019-02-24T20:41:57.499Z,35.79
2019-02-24T20:45:22.964Z,36.08
2019-02-24T20:48:46.247Z,36.55
2019-02-24T20:52:09.605Z,36.12
2019-02-24T20:55:35.926Z,35.74
2019-02-24T20:58:59.201Z,36.26
2019-02-24T21:02:22.527Z,36.11
2019-02-24T21:05:45.973Z,34.08
2019-02-24T21:09:09.281Z,30.70
2019-02-24T21:12:32.489Z,33.83
2019-02-24T21:15:55.873Z,36.66
2019-02-24T21:19:19.350Z,36.67
2019-02-24T21:22:42.483Z,37.37
2019-02-24T21:26:05.591Z,36.52
2019-02-24T21:29:28.720Z,37.35
2019-02-24T21:32:51.968Z,37.14
2019-02-24T21:36:15.879Z,37.31
2019-02-24T21:39:39.065Z,37.19
2019-02-24T21:43:02.345Z,37.57
2019-02-24T21:46:25.448Z,38.11
2019-02-24T21:49:48.559Z,37.99
2019-02-24T21:53:11.671Z,37.82
2019-02-24T21:56:34.749Z,37.43
2019-02-24T21:59:58.247Z,37.96
2019-02-24T22:03:21.452Z,38.26
2019-02-24T22:06:44.846Z,38.10
2019-02-24T22:10:09.027Z,38.78
2019-02-24T22:13:32.473Z,38.73
2019-02-24T22:16:55.682Z,38.97
2019-02-24T22:20:19.097Z,38.46
2019-02-24T22:23:42.195Z,38.57
2019-02-24T22:27:05.301Z,38.98
2019-02-24T22:30:28.424Z,39.34
2019-02-24T22:33:51.509Z,39.92
2019-02-24T22:37:14.714Z,40.80
2019-02-24T22:40:37.805Z,40.04
2019-02-24T22:44:00.906Z,40.37
2019-02-24T22:47:24.031Z,40.30
2019-02-24T22:50:47.588Z,40.87
2019-02-24T22:54:11.066Z,40.57
2019-02-24T22:57:34.356Z,40.05
2019-02-24T23:01:07.304Z,39.89
2019-02-24T23:04:32.300Z,40.05
2019-02-24T23:07:56.445Z,41.15
2019-02-24T23:11:19.595Z,42.25
2019-02-24T23:14:43.834Z,42.14
2019-02-24T23:18:07.390Z,41.83
2019-02-24T23:21:30.616Z,41.46
2019-02-24T23:24:53.899Z,42.01
2019-02-24T23:28:17.193Z,41.66
2019-02-24T23:31:43.018Z,41.92
2019-02-24T23:35:06.403Z,41.37
2019-02-24T23:38:29.598Z,41.88
2019-02-24T23:41:52.860Z,42.52
2019-02-24T23:45:15.929Z,42.45
2019-02-24T23:48:39.056Z,43.24
2019-02-24T23:52:02.160Z,43.63
2019-02-24T23:55:25.262Z,44.26
2019-02-24T23:58:48.378Z,43.67
